Time;durP1;ratioP1;P1;durP2;ratioP2;P2;SDS_P1;SDS_P2;PMS_P1;PMS_P2;Temp;Humidity;BMP_temperature;BMP_pressure;BME280_temperature;BME280_humidity;BME280_pressure;Samples;Min_cycle;Max_cycle;Signal;HPM_P1;HPM_P2
2022/07/03 00:02:18;;;;;;;6.37;2.87;;;;;;;24.02;69.48;99560.41;5040280;28;20072;-66
2022/07/03 00:04:48;;;;;;;4.40;2.33;;;;;;;23.94;69.50;99562.88;5039987;28;20068;-63
2022/07/03 00:07:19;;;;;;;19.17;2.93;;;;;;;23.74;69.68;99574.34;5039517;28;20049;-63
2022/07/03 00:09:50;;;;;;;7.40;2.63;;;;;;;23.66;70.47;99573.13;5039516;28;20049;-64
2022/07/03 00:12:20;;;;;;;8.67;2.03;;;;;;;23.61;70.89;99572.69;5039447;28;20225;-63
2022/07/03 00:14:51;;;;;;;7.97;2.50;;;;;;;23.58;71.10;99562.22;5036109;28;20162;-69
2022/07/03 00:17:23;;;;;;;3.63;2.00;;;;;;;23.51;71.25;99563.69;5044403;28;20045;-63
2022/07/03 00:19:55;;;;;;;5.03;2.60;;;;;;;23.53;71.70;99564.44;5044752;28;20087;-65
2022/07/03 00:22:27;;;;;;;4.20;2.17;;;;;;;23.61;71.84;99567.34;5045657;28;20369;-64
2022/07/03 00:25:06;;;;;;;3.27;2.20;;;;;;;23.69;71.28;99572.88;5044125;28;20061;-63
2022/07/03 00:27:36;;;;;;;;;;;;;;;23.88;71.36;99563.38;5045207;28;20103;-64
2022/07/03 00:30:08;;;;;;;5.67;2.30;;;;;;;24.03;70.08;99572.78;5044890;28;19970;-66
2022/07/03 00:32:43;;;;;;;13.87;3.13;;;;;;;24.25;70.11;99562.97;5044955;28;20049;-64
2022/07/03 00:35:19;;;;;;;14.27;3.63;;;;;;;24.52;69.68;99568.66;5045339;28;20646;-64
2022/07/03 00:37:50;;;;;;;5.17;2.60;;;;;;;24.75;68.26;99560.50;5044469;28;20340;-66
2022/07/03 00:40:21;;;;;;;14.13;2.70;;;;;;;24.91;68.57;99568.88;5045096;28;20049;-64
2022/07/03 00:42:52;;;;;;;5.87;2.20;;;;;;;25.10;67.83;99575.28;5045309;28;20070;-66
2022/07/03 00:45:23;;;;;;;5.87;2.47;;;;;;;25.56;67.49;99573.88;5043914;28;20103;-64
2022/07/03 00:47:57;;;;;;;12.70;3.07;;;;;;;25.67;65.56;99563.06;5045477;28;20291;-64
2022/07/03 00:50:35;;;;;;;9.33;4.10;;;;;;;25.95;65.20;99558.75;5044731;28;20111;-64
2022/07/03 00:53:05;;;;;;;17.97;8.30;;;;;;;26.11;64.29;99562.69;5045046;28;20049;-65
2022/07/03 00:55:38;;;;;;;10.00;3.60;;;;;;;26.06;64.06;99555.09;5044975;28;20057;-64
2022/07/03 00:58:09;;;;;;;21.97;5.07;;;;;;;26.02;64.34;99545.66;5045046;28;20056;-67
2022/07/03 01:00:42;;;;;;;37.30;5.07;;;;;;;25.93;64.72;99538.47;5045018;28;20068;-64
2022/07/03 01:03:17;;;;;;;9.73;3.43;;;;;;;25.83;64.45;99539.28;5045290;28;20046;-67
2022/07/03 01:05:53;;;;;;;10.83;2.83;;;;;;;25.58;65.10;99535.31;5046870;28;20048;-62
2022/07/03 01:08:32;;;;;;;49.83;5.33;;;;;;;25.55;65.77;99540.09;5048656;28;20322;-63
2022/07/03 01:11:10;;;;;;;8.60;4.20;;;;;;;25.92;65.63;99534.09;5049130;28;20296;-65
2022/07/03 01:13:52;;;;;;;6.50;3.22;;;;;;;26.28;65.14;99527.16;5049056;28;20104;-63
2022/07/03 01:16:28;;;;;;;6.33;3.23;;;;;;;26.32;64.65;99533.91;5048642;28;20108;-63
2022/07/03 01:19:11;;;;;;;8.13;3.20;;;;;;;26.13;64.36;99518.72;5049172;28;20045;-64
2022/07/03 01:22:02;;;;;;;7.20;3.20;;;;;;;26.09;64.10;99544.09;5048899;28;20053;-66
2022/07/03 01:24:58;;;;;;;6.10;2.80;;;;;;;26.07;64.85;99546.06;5049014;28;20063;-66
2022/07/03 01:27:35;;;;;;;23.73;4.27;;;;;;;26.12;64.59;99548.31;5048988;28;20052;-65
2022/07/03 01:30:10;;;;;;;7.70;3.23;;;;;;;26.53;65.07;99541.78;5048579;28;20056;-65
2022/07/03 01:32:43;;;;;;;13.63;3.17;;;;;;;26.70;64.40;99539.34;5048635;28;20084;-64
2022/07/03 01:35:15;;;;;;;13.40;3.37;;;;;;;26.81;64.23;99512.34;5048952;28;20134;-64
2022/07/03 01:37:48;;;;;;;12.57;3.27;;;;;;;27.00;63.38;99523.00;5048854;28;20061;-66
2022/07/03 01:40:21;;;;;;;10.93;3.60;;;;;;;27.37;62.79;99530.16;5048865;28;20052;-64
2022/07/03 01:42:55;;;;;;;98.43;8.30;;;;;;;27.28;61.93;99523.00;5048255;28;20095;-65
2022/07/03 01:45:28;;;;;;;17.77;4.03;;;;;;;27.48;61.27;99513.88;5048609;28;20245;-66
2022/07/03 01:48:00;;;;;;;15.57;3.27;;;;;;;27.61;60.96;99523.34;5048392;28;20041;-64
2022/07/03 01:50:32;;;;;;;18.63;4.17;;;;;;;27.92;60.73;99513.94;5048182;28;20061;-68
2022/07/03 01:53:04;;;;;;;22.37;3.80;;;;;;;28.01;59.79;99495.22;5048080;28;20117;-65
2022/07/03 01:55:35;;;;;;;12.37;3.50;;;;;;;28.26;59.42;99505.16;5048415;28;20045;-66
2022/07/03 01:58:07;;;;;;;10.30;2.80;;;;;;;27.94;59.12;99511.97;5048480;28;20061;-65
2022/07/03 02:00:46;;;;;;;8.07;2.93;;;;;;;27.51;59.54;99521.59;5044688;28;20057;-65
2022/07/03 02:03:30;;;;;;;18.50;3.53;;;;;;;26.97;60.31;99504.53;5047684;28;20103;-64
2022/07/03 02:06:08;;;;;;;10.27;3.40;;;;;;;26.89;61.94;99525.88;5047505;28;20049;-65
2022/07/03 02:08:50;;;;;;;15.02;3.70;;;;;;;26.82;62.17;99527.47;5046848;28;20057;-64
2022/07/03 02:11:42;;;;;;;13.77;3.03;;;;;;;26.79;62.57;99519.72;5047722;28;20113;-64
2022/07/03 02:14:17;;;;;;;9.17;2.93;;;;;;;26.82;62.45;99514.06;5046318;28;20069;-66
2022/07/03 02:17:00;;;;;;;9.03;3.63;;;;;;;26.77;61.86;99510.97;5044835;28;20077;-66
2022/07/03 02:19:43;;;;;;;8.03;3.30;;;;;;;26.47;62.69;99510.19;5046241;28;20065;-65
2022/07/03 02:22:15;;;;;;;11.57;3.27;;;;;;;26.22;63.22;99507.16;5046490;28;20052;-65
2022/07/03 02:24:46;;;;;;;8.73;3.30;;;;;;;26.04;63.93;99499.00;5046425;28;20281;-64
2022/07/03 02:27:20;;;;;;;9.40;3.50;;;;;;;25.95;64.58;99501.69;5046747;28;20072;-66
2022/07/03 02:30:01;;;;;;;7.80;2.90;;;;;;;26.01;65.43;99498.47;5047276;28;20057;-66
2022/07/03 02:32:35;;;;;;;6.87;3.00;;;;;;;26.02;64.99;99486.75;5047635;28;20057;-63
2022/07/03 02:35:09;;;;;;;8.47;3.23;;;;;;;26.03;65.44;99501.81;5047377;28;20060;-64
2022/07/03 02:37:46;;;;;;;11.60;3.30;;;;;;;26.02;65.53;99497.47;5046465;28;20065;-65
2022/07/03 02:40:28;;;;;;;6.23;2.80;;;;;;;26.00;64.95;99486.91;5046136;28;20056;-65
2022/07/03 02:43:14;;;;;;;6.20;3.13;;;;;;;25.96;65.29;99488.19;5047549;28;20310;-65
2022/07/03 02:45:55;;;;;;;7.00;2.80;;;;;;;26.14;65.42;99493.66;5047417;28;20049;-65
2022/07/03 02:48:33;;;;;;;9.47;3.97;;;;;;;26.22;64.82;99480.38;5047219;28;20064;-65
2022/07/03 02:51:09;;;;;;;17.67;4.22;;;;;;;26.24;64.43;99475.72;5046852;28;20057;-63
2022/07/03 02:53:48;;;;;;;14.93;3.33;;;;;;;26.33;64.66;99481.19;5046172;28;20196;-67
2022/07/03 02:56:29;;;;;;;10.17;2.70;;;;;;;26.60;64.20;99481.28;5046913;28;20044;-65
2022/07/03 02:59:14;;;;;;;7.03;3.17;;;;;;;26.62;63.24;99486.50;5047091;28;20053;-63
2022/07/03 03:01:50;;;;;;;16.70;3.00;;;;;;;26.38;63.09;99478.94;5047134;28;20083;-65
2022/07/03 03:04:29;;;;;;;9.10;3.17;;;;;;;26.23;63.45;99487.44;5046159;28;20060;-65
2022/07/03 03:07:04;;;;;;;8.80;3.23;;;;;;;26.15;63.31;99487.28;5046756;28;20298;-64
2022/07/03 03:09:44;;;;;;;4.90;2.93;;;;;;;26.31;64.29;99491.19;5046709;28;20057;-65
2022/07/03 03:12:16;;;;;;;12.33;4.23;;;;;;;26.55;63.92;99491.59;5046557;28;20060;-66
2022/07/03 03:14:54;;;;;;;14.77;3.67;;;;;;;26.71;64.10;99458.81;5046806;28;20103;-65
2022/07/03 03:17:27;;;;;;;11.80;5.55;;;;;;;27.15;62.99;99484.97;5046406;28;20053;-64
2022/07/03 03:19:59;;;;;;;36.73;4.90;;;;;;;27.13;61.36;99490.47;5046239;28;20068;-65
2022/07/03 03:22:41;;;;;;;9.87;3.90;;;;;;;26.85;61.72;99493.16;5044421;28;20412;-64
2022/07/03 03:25:14;;;;;;;8.97;3.60;;;;;;;26.73;61.82;99493.50;5045587;28;20061;-64
2022/07/03 03:27:44;;;;;;;7.67;3.20;;;;;;;26.58;62.91;99502.00;5046476;28;20380;-64
2022/07/03 03:30:15;;;;;;;6.03;2.90;;;;;;;26.39;63.55;99496.69;5045437;28;20049;-65
2022/07/03 03:32:47;;;;;;;10.70;3.47;;;;;;;26.32;63.67;99498.25;5046683;28;20106;-65
2022/07/03 03:35:18;;;;;;;12.40;4.10;;;;;;;26.24;64.09;99494.47;5046344;28;20431;-63
2022/07/03 03:37:49;;;;;;;9.30;3.90;;;;;;;26.09;64.18;99495.91;5046738;28;20045;-64
2022/07/03 03:40:20;;;;;;;13.90;4.30;;;;;;;26.04;64.89;99492.81;5046225;28;20050;-65
2022/07/03 03:42:51;;;;;;;7.97;3.30;;;;;;;26.04;65.14;99488.31;5045274;28;20099;-64
2022/07/03 03:45:22;;;;;;;9.77;3.70;;;;;;;26.07;64.73;99487.19;5045360;28;20340;-64
2022/07/03 03:47:54;;;;;;;10.83;3.77;;;;;;;26.12;65.24;99479.56;5045999;28;20344;-64
2022/07/03 03:50:25;;;;;;;13.23;3.50;;;;;;;26.30;64.76;99486.84;5046180;28;20317;-66
2022/07/03 03:52:56;;;;;;;53.23;5.80;;;;;;;26.38;64.65;99485.13;5045822;28;20061;-64
2022/07/03 03:55:26;;;;;;;10.23;3.37;;;;;;;26.47;64.45;99483.41;5045359;28;20063;-66
2022/07/03 03:57:57;;;;;;;25.63;4.00;;;;;;;26.45;64.11;99486.22;5045684;28;20057;-64
2022/07/03 04:00:28;;;;;;;8.87;3.17;;;;;;;26.24;64.55;99473.06;5044538;28;20060;-64
2022/07/03 04:03:00;;;;;;;18.20;4.37;;;;;;;26.37;64.85;99493.31;5045471;28;20061;-63
2022/07/03 04:05:30;;;;;;;26.93;3.90;;;;;;;26.43;65.35;99488.22;5045423;28;20063;-64
2022/07/03 04:08:01;;;;;;;7.23;3.30;;;;;;;26.60;63.92;99483.94;5045182;28;20055;-63
2022/07/03 04:10:32;;;;;;;9.50;3.80;;;;;;;26.70;63.66;99499.16;5041086;28;20499;-63
2022/07/03 04:13:02;;;;;;;13.00;3.70;;;;;;;26.79;63.22;99498.28;5044978;28;20115;-65
2022/07/03 04:15:33;;;;;;;9.13;3.57;;;;;;;26.86;63.08;99494.84;5044838;28;20061;-65
2022/07/03 04:18:05;;;;;;;9.00;3.27;;;;;;;26.99;63.11;99489.16;5042621;28;20188;-64
2022/07/03 04:20:36;;;;;;;7.83;3.37;;;;;;;27.23;62.88;99479.72;5045773;28;20048;-65
2022/07/03 04:23:07;;;;;;;6.23;3.43;;;;;;;27.25;62.07;99488.44;5045401;28;20091;-64
2022/07/03 04:25:37;;;;;;;9.33;3.60;;;;;;;27.10;62.72;99491.59;5043750;28;20219;-64
2022/07/03 04:28:08;;;;;;;4.63;3.40;;;;;;;27.03;62.42;99490.53;5045245;28;20056;-65
2022/07/03 04:30:54;;;;;;;10.00;3.27;;;;;;;26.95;62.50;99486.91;5045673;28;20057;-63
2022/07/03 04:33:26;;;;;;;11.53;3.80;;;;;;;27.01;62.67;99492.53;5044545;28;20306;-64
2022/07/03 04:35:56;;;;;;;14.17;4.33;;;;;;;26.99;63.33;99489.16;5044954;28;20366;-63
2022/07/03 04:38:27;;;;;;;10.30;3.63;;;;;;;27.06;63.37;99489.41;5044164;28;20045;-63
2022/07/03 04:40:57;;;;;;;9.83;3.37;;;;;;;27.06;62.95;99482.19;5044690;28;20053;-63
2022/07/03 04:43:28;;;;;;;14.17;3.40;;;;;;;27.14;62.65;99485.97;5045058;28;20060;-64
2022/07/03 04:45:59;;;;;;;16.20;4.30;;;;;;;27.11;62.36;99493.31;5045182;28;20061;-63
2022/07/03 04:48:32;;;;;;;28.23;4.87;;;;;;;27.07;62.49;99483.88;5044094;28;20407;-65
2022/07/03 04:51:03;;;;;;;10.07;4.30;;;;;;;26.98;62.63;99490.13;5044178;28;20068;-63
2022/07/03 04:53:33;;;;;;;10.77;4.20;;;;;;;26.61;63.37;99496.38;5045368;28;20064;-64
2022/07/03 04:56:04;;;;;;;8.30;3.83;;;;;;;26.47;64.49;99494.97;5045340;28;20171;-64
2022/07/03 04:58:34;;;;;;;13.23;4.97;;;;;;;26.89;64.06;99499.06;5045210;28;20061;-64
2022/07/03 05:01:07;;;;;;;11.93;4.97;;;;;;;26.92;62.69;99493.41;5044774;28;20049;-62
2022/07/03 05:03:40;;;;;;;15.53;3.97;;;;;;;26.84;63.48;99496.00;5045027;28;20041;-63
2022/07/03 05:06:11;;;;;;;13.23;3.97;;;;;;;26.41;61.96;99498.25;5045129;28;20055;-64
2022/07/03 05:08:48;;;;;;;6.40;3.03;;;;;;;26.13;62.65;99502.66;5045444;28;20049;-60
2022/07/03 05:11:19;;;;;;;10.47;3.43;;;;;;;25.88;62.90;99508.59;5045276;28;20096;-59
2022/07/03 05:13:49;;;;;;;6.60;3.07;;;;;;;26.04;62.43;99508.88;5045184;28;20214;-58
2022/07/03 05:16:20;;;;;;;5.90;3.23;;;;;;;25.92;62.13;99515.38;5044755;28;20049;-58
2022/07/03 05:18:52;;;;;;;11.17;3.47;;;;;;;25.72;61.78;99515.34;5045087;28;20049;-60
2022/07/03 05:21:23;;;;;;;15.83;3.70;;;;;;;25.57;63.98;99511.38;5042278;28;20057;-59
2022/07/03 05:23:53;;;;;;;13.07;3.30;;;;;;;25.28;62.87;99512.19;5039631;28;20045;-59
2022/07/03 05:26:24;;;;;;;9.07;3.93;;;;;;;24.96;64.36;99518.56;5024834;28;20054;-58
2022/07/03 05:28:55;;;;;;;9.40;3.80;;;;;;;24.61;65.22;99510.09;5025099;28;20343;-59
2022/07/03 05:31:25;;;;;;;19.87;4.03;;;;;;;24.33;66.34;99509.78;5025048;28;20380;-58
2022/07/03 05:33:57;;;;;;;11.87;4.10;;;;;;;24.21;67.49;99521.50;5025201;28;20099;-58
2022/07/03 05:36:28;;;;;;;6.37;3.87;;;;;;;24.20;67.94;99509.97;5024846;28;20064;-59
2022/07/03 05:41:46;;;;;;;10.53;4.30;;;;;;;24.13;68.34;99518.63;5024819;28;20513;-58
2022/07/03 05:44:17;;;;;;;9.57;4.20;;;;;;;24.02;67.94;99523.06;5024944;28;20139;-59
2022/07/03 05:46:47;;;;;;;11.33;4.37;;;;;;;23.96;68.09;99523.56;5024848;28;20061;-58
2022/07/03 05:49:19;;;;;;;13.83;4.00;;;;;;;23.81;68.83;99519.50;5024733;28;20064;-58
2022/07/03 05:51:50;;;;;;;8.30;3.97;;;;;;;23.74;68.48;99523.66;5025426;28;20061;-58
2022/07/03 05:54:21;;;;;;;11.63;3.87;;;;;;;23.40;68.32;99537.06;5028868;28;20054;-58
2022/07/03 05:56:51;;;;;;;8.27;4.13;;;;;;;23.05;69.77;99516.78;5028673;28;20337;-58
2022/07/03 05:59:22;;;;;;;7.73;4.23;;;;;;;23.11;69.97;99531.44;5028450;28;20070;-58
2022/07/03 06:01:52;;;;;;;7.43;4.60;;;;;;;23.05;70.54;99532.78;5028236;28;20306;-58
2022/07/03 06:04:24;;;;;;;16.97;4.80;;;;;;;23.08;70.54;99527.19;5028460;28;20049;-58
2022/07/03 06:06:56;;;;;;;8.60;4.47;;;;;;;23.07;70.32;99530.84;5028192;28;20049;-59
2022/07/03 06:09:26;;;;;;;8.87;4.70;;;;;;;22.98;70.98;99527.06;5028122;28;20065;-59
2022/07/03 06:11:57;;;;;;;10.00;4.63;;;;;;;22.94;71.17;99524.75;5028236;28;20379;-58
2022/07/03 06:14:27;;;;;;;13.37;5.20;;;;;;;22.81;71.21;99525.75;5028180;28;20064;-58
2022/07/03 06:16:58;;;;;;;17.00;5.17;;;;;;;22.74;71.04;99519.19;5027244;28;20061;-59
2022/07/03 06:19:30;;;;;;;9.63;4.80;;;;;;;22.60;71.58;99530.09;5028002;28;20054;-59
2022/07/03 06:22:01;;;;;;;15.50;4.80;;;;;;;22.52;71.85;99530.69;5027715;28;20073;-58
2022/07/03 06:24:31;;;;;;;14.97;4.47;;;;;;;22.62;71.89;99530.81;5027351;28;20053;-59
2022/07/03 06:27:02;;;;;;;8.47;4.77;;;;;;;22.56;71.43;99536.59;5027610;28;20121;-59
2022/07/03 06:29:33;;;;;;;19.57;5.10;;;;;;;22.55;72.13;99541.09;5027658;28;20068;-59
2022/07/03 06:32:03;;;;;;;13.10;4.87;;;;;;;22.55;72.01;99529.59;5027968;28;20054;-58
2022/07/03 06:34:36;;;;;;;12.07;5.13;;;;;;;22.59;72.41;99541.72;5027750;28;20049;-58
2022/07/03 06:37:06;;;;;;;19.40;5.07;;;;;;;22.76;71.56;99538.53;5027811;28;20068;-58
2022/07/03 06:39:37;;;;;;;9.17;5.07;;;;;;;22.86;70.79;99527.19;5027322;28;20107;-58
2022/07/03 06:42:08;;;;;;;9.30;5.07;;;;;;;23.10;70.98;99530.59;5026694;28;20057;-59
2022/07/03 06:44:38;;;;;;;15.50;5.17;;;;;;;22.99;70.19;99501.31;5027471;28;20104;-59
2022/07/03 06:47:09;;;;;;;12.53;5.20;;;;;;;23.02;70.24;99525.03;5027433;28;20318;-59
2022/07/03 06:49:43;;;;;;;13.80;4.93;;;;;;;22.98;70.71;99543.06;5027412;28;20046;-58
2022/07/03 06:52:14;;;;;;;12.03;5.70;;;;;;;22.62;70.57;99552.13;5027205;28;20054;-59
2022/07/03 06:54:45;;;;;;;15.70;5.10;;;;;;;22.39;72.02;99546.75;5027486;28;20539;-59
2022/07/03 06:57:16;;;;;;;18.03;5.63;;;;;;;22.30;72.21;99551.94;5026521;28;20121;-59
2022/07/03 06:59:48;;;;;;;18.27;6.10;;;;;;;22.17;73.07;99552.00;5026918;28;20053;-59
2022/07/03 07:02:18;;;;;;;18.43;6.33;;;;;;;22.07;73.59;99551.00;5027164;28;20057;-59
2022/07/03 07:04:50;;;;;;;12.10;6.40;;;;;;;21.87;74.01;99556.00;5026821;28;20054;-59
2022/07/03 07:07:21;;;;;;;20.07;7.43;;;;;;;21.65;74.74;99555.88;5027452;28;20285;-59
2022/07/03 07:09:52;;;;;;;20.57;14.50;;;;;;;21.42;75.24;99525.69;5027611;28;20285;-58
2022/07/03 07:12:22;;;;;;;22.70;12.50;;;;;;;21.46;75.23;99557.22;5027203;28;20069;-58
2022/07/03 07:14:55;;;;;;;20.60;7.93;;;;;;;20.72;75.79;99475.78;5027117;28;20323;-59
2022/07/03 07:17:26;;;;;;;9.73;5.77;;;;;;;20.85;75.54;99545.66;5027140;28;20288;-59
2022/07/03 07:19:59;;;;;;;8.37;5.77;;;;;;;20.80;76.59;99558.41;5026851;28;20469;-58
2022/07/03 07:22:29;;;;;;;7.03;5.63;;;;;;;20.71;76.24;99556.38;5026818;28;20323;-59
2022/07/03 07:25:00;;;;;;;8.63;5.93;;;;;;;20.54;76.72;99553.03;5026486;28;20281;-58
2022/07/03 07:27:30;;;;;;;13.40;6.60;;;;;;;20.45;76.80;99559.00;5026733;28;20326;-58
2022/07/03 07:30:01;;;;;;;12.17;6.60;;;;;;;20.36;76.72;99567.59;5026624;28;20344;-58
2022/07/03 07:32:31;;;;;;;12.00;6.70;;;;;;;20.19;77.12;99564.28;5026838;28;20300;-58
2022/07/03 07:35:05;;;;;;;12.40;6.20;;;;;;;20.12;77.61;99565.66;5026486;28;20305;-58
2022/07/03 07:37:35;;;;;;;20.77;6.73;;;;;;;20.14;77.85;99571.69;5026813;28;20285;-59
2022/07/03 07:40:07;;;;;;;51.57;33.30;;;;;;;20.19;77.56;99580.19;5026313;28;20284;-59
2022/07/03 07:42:38;;;;;;;13.80;6.50;;;;;;;19.95;77.55;99581.81;5026439;28;20391;-58
2022/07/03 07:45:10;;;;;;;11.70;6.90;;;;;;;19.73;78.04;99588.53;5026486;28;20273;-58
2022/07/03 07:47:40;;;;;;;11.13;6.17;;;;;;;19.57;78.71;99590.44;5026341;28;20496;-58
2022/07/03 07:50:14;;;;;;;11.73;6.43;;;;;;;19.34;78.39;99591.91;5025609;28;20288;-58
2022/07/03 07:52:44;;;;;;;10.30;6.43;;;;;;;19.12;79.02;99600.34;5026150;28;20382;-59
2022/07/03 07:55:15;;;;;;;17.90;6.13;;;;;;;19.09;79.21;99603.19;5026113;28;20277;-58
2022/07/03 07:57:46;;;;;;;10.23;6.07;;;;;;;19.07;79.17;99610.38;5026283;28;20285;-58
2022/07/03 08:00:18;;;;;;;9.00;6.60;;;;;;;18.90;79.32;99588.44;5025162;28;20285;-58
2022/07/03 08:05:38;;;;;;;14.73;6.37;;;;;;;18.34;79.05;99531.84;5025713;28;20304;-59
2022/07/03 08:08:11;;;;;;;12.97;6.00;;;;;;;18.78;79.52;99620.09;5026389;28;20359;-58
2022/07/03 08:10:43;;;;;;;17.13;6.50;;;;;;;18.76;79.81;99622.84;5026415;28;20298;-59
2022/07/03 08:13:15;;;;;;;12.47;6.27;;;;;;;18.64;79.49;99623.53;5026169;28;20276;-58
2022/07/03 08:15:46;;;;;;;10.00;5.73;;;;;;;18.46;80.25;99626.34;5025181;28;20573;-58
2022/07/03 08:18:17;;;;;;;11.33;6.13;;;;;;;18.28;80.61;99620.34;5025716;28;20292;-59
2022/07/03 08:20:50;;;;;;;9.37;6.10;;;;;;;18.31;81.23;99632.53;5025619;28;20295;-59
2022/07/03 08:23:21;;;;;;;10.67;6.27;;;;;;;18.36;81.17;99635.75;5026183;28;20324;-59
2022/07/03 08:25:51;;;;;;;12.17;5.90;;;;;;;18.38;80.77;99639.16;5025730;28;20296;-58
2022/07/03 08:28:22;;;;;;;13.63;5.77;;;;;;;18.24;80.96;99637.31;5025757;28;20310;-59
2022/07/03 08:30:52;;;;;;;19.67;6.40;;;;;;;18.17;81.01;99629.81;5025328;28;20293;-59
2022/07/03 08:33:23;;;;;;;18.53;6.30;;;;;;;18.18;80.83;99639.47;5026104;28;20295;-58
2022/07/03 08:35:55;;;;;;;7.93;5.00;;;;;;;18.10;80.80;99640.78;5026089;28;20288;-59
2022/07/03 08:38:32;;;;;;;9.40;5.57;;;;;;;18.00;81.44;99644.88;5025830;28;20288;-58
2022/07/03 08:41:04;;;;;;;13.43;4.80;;;;;;;17.98;81.73;99643.25;5026575;28;20323;-59
2022/07/03 08:43:37;;;;;;;14.07;5.17;;;;;;;17.96;81.68;99648.63;5025775;28;20300;-59
2022/07/03 08:46:08;;;;;;;19.10;5.57;;;;;;;17.83;81.33;99624.69;5025994;28;20292;-58
2022/07/03 08:48:39;;;;;;;7.87;5.07;;;;;;;17.75;81.38;99649.81;5025733;28;20288;-59
2022/07/03 08:51:12;;;;;;;9.70;5.87;;;;;;;17.64;81.62;99648.59;5025882;28;20554;-59
2022/07/03 08:53:45;;;;;;;12.47;5.30;;;;;;;17.51;82.04;99649.38;5026031;28;20323;-58
2022/07/03 08:56:16;;;;;;;15.20;5.67;;;;;;;17.35;82.25;99642.28;5025265;28;20312;-60
2022/07/03 08:58:47;;;;;;;9.20;4.73;;;;;;;17.50;82.05;99656.44;5025000;28;20809;-60
2022/07/03 09:01:21;;;;;;;12.30;5.10;;;;;;;17.37;82.59;99645.72;5025235;28;20300;-60
2022/07/03 09:03:53;;;;;;;17.93;5.70;;;;;;;17.45;83.10;99658.50;5026204;28;20300;-60
2022/07/03 09:06:26;;;;;;;8.40;5.43;;;;;;;17.48;82.71;99666.25;5026122;28;20360;-59
2022/07/03 09:09:05;;;;;;;11.07;5.07;;;;;;;16.73;82.92;99564.66;5026261;28;20300;-59
2022/07/03 09:11:36;;;;;;;14.83;5.90;;;;;;;17.17;83.97;99664.38;5023345;28;20346;-59
2022/07/03 09:14:06;;;;;;;13.33;5.80;;;;;;;17.21;84.26;99672.06;5025765;28;20334;-59
2022/07/03 09:16:37;;;;;;;14.00;6.20;;;;;;;16.94;84.75;99637.41;5025311;28;20292;-63
2022/07/03 09:19:08;;;;;;;13.63;6.20;;;;;;;17.01;84.45;99680.19;5025059;28;20291;-61
2022/07/03 09:21:42;;;;;;;37.13;33.23;;;;;;;16.78;85.39;99663.75;5025357;28;20303;-61
2022/07/03 09:24:13;;;;;;;15.00;6.20;;;;;;;16.85;85.67;99690.69;5025088;28;20319;-61
2022/07/03 09:26:53;;;;;;;12.87;5.93;;;;;;;16.56;86.21;99694.78;5027008;28;20295;-60
2022/07/03 09:29:23;;;;;;;11.57;5.50;;;;;;;16.38;86.44;99686.00;5029235;28;20292;-60
2022/07/03 09:31:57;;;;;;;11.10;5.87;;;;;;;16.17;87.72;99687.88;5029053;28;20299;-60
2022/07/03 09:34:28;;;;;;;8.83;5.53;;;;;;;15.87;88.66;99691.06;5029201;28;20289;-60
2022/07/03 09:37:00;;;;;;;12.47;6.10;;;;;;;15.76;89.60;99703.91;5029031;28;20295;-60
2022/07/03 09:39:34;;;;;;;10.13;6.00;;;;;;;15.67;90.14;99717.44;5029080;28;20297;-60
2022/07/03 09:42:06;;;;;;;13.33;6.70;;;;;;;15.30;90.42;99642.78;5028857;28;20269;-60
2022/07/03 09:44:40;;;;;;;12.07;7.17;;;;;;;15.56;90.69;99712.69;5028799;28;20334;-60
2022/07/03 09:47:13;;;;;;;11.93;7.40;;;;;;;15.64;91.68;99720.22;5028737;28;20286;-59
2022/07/03 09:49:52;;;;;;;15.37;7.07;;;;;;;15.64;91.59;99699.16;5028924;28;20292;-59
2022/07/03 09:52:34;;;;;;;12.82;7.43;;;;;;;15.59;91.42;99695.88;5028379;28;20340;-60
2022/07/03 09:55:16;;;;;;;16.27;7.70;;;;;;;14.95;91.60;99611.03;5028521;28;20055;-60
2022/07/03 09:57:59;;;;;;;14.07;8.07;;;;;;;15.57;91.43;99713.53;5028426;28;20297;-61
2022/07/03 10:00:32;;;;;;;17.60;8.63;;;;;;;15.46;90.78;99712.25;5028585;28;20612;-59
2022/07/03 10:03:04;;;;;;;16.67;8.97;;;;;;;15.43;91.58;99712.38;5028513;28;20288;-60
2022/07/03 10:05:36;;;;;;;16.17;9.90;;;;;;;15.25;91.35;99702.66;5028657;28;21115;-61
2022/07/03 10:08:10;;;;;;;13.70;8.33;;;;;;;15.27;91.33;99727.16;5028005;28;20604;-60
2022/07/03 10:10:43;;;;;;;13.13;8.17;;;;;;;15.17;91.28;99725.84;5028263;28;20336;-61
2022/07/03 10:13:14;;;;;;;14.70;9.27;;;;;;;15.10;91.80;99736.66;5029202;28;20300;-62
2022/07/03 10:15:45;;;;;;;16.33;8.33;;;;;;;15.13;91.73;99745.34;5029261;28;20284;-62
2022/07/03 10:18:19;;;;;;;12.40;8.30;;;;;;;15.09;91.72;99739.34;5028175;28;20284;-61
2022/07/03 10:20:51;;;;;;;15.20;8.63;;;;;;;14.84;91.68;99713.22;5028427;28;20283;-61
2022/07/03 10:23:24;;;;;;;16.77;9.57;;;;;;;14.98;92.07;99742.44;5027970;28;20300;-61
2022/07/03 10:25:56;;;;;;;11.83;8.20;;;;;;;14.37;91.66;99650.31;5028147;28;20284;-62
2022/07/03 10:28:27;;;;;;;15.03;9.03;;;;;;;14.67;92.09;99717.41;5027849;28;20292;-64
2022/07/03 10:30:58;;;;;;;14.00;8.17;;;;;;;14.75;92.49;99745.16;5028245;28;20477;-62
2022/07/03 10:33:31;;;;;;;15.13;9.57;;;;;;;14.80;93.24;99758.97;5027815;28;20484;-63
2022/07/03 10:36:03;;;;;;;14.37;8.23;;;;;;;14.72;92.47;99747.94;5028584;28;20360;-62
2022/07/03 10:38:41;;;;;;;15.40;8.80;;;;;;;14.66;93.23;99757.78;5028199;28;20589;-63
2022/07/03 10:46:53;;;;;;;13.80;8.03;;;;;;;14.73;92.76;99781.22;5027943;28;20289;-62
2022/07/03 10:49:30;;;;;;;11.60;8.07;;;;;;;14.61;92.67;99780.78;5027811;28;20284;-63
2022/07/03 10:52:01;;;;;;;13.25;8.55;;;;;;;14.50;92.71;99767.19;5028587;28;20452;-62
2022/07/03 10:54:36;;;;;;;14.25;9.48;;;;;;;14.48;92.76;99784.81;5027339;28;20049;-60
2022/07/03 10:57:25;;;;;;;14.43;8.73;;;;;;;14.35;93.19;99783.56;5027745;28;20062;-61
2022/07/03 11:00:14;;;;;;;15.73;9.20;;;;;;;14.30;93.29;99765.34;5027182;28;20061;-60
2022/07/03 11:02:50;;;;;;;16.35;8.82;;;;;;;14.25;93.68;99772.56;5027300;28;20060;-59
2022/07/03 11:05:38;;;;;;;14.70;8.23;;;;;;;14.42;94.58;99779.78;5027252;28;20062;-60
2022/07/03 11:08:16;;;;;;;11.82;8.20;;;;;;;14.45;93.96;99774.41;5027952;28;20321;-60
2022/07/03 11:11:54;;;;;;;10.48;7.47;;;;;;;14.53;93.58;99785.50;5027027;28;20042;-63
2022/07/03 11:14:17;;;;;;;12.63;7.25;;;;;;;14.38;93.24;99783.47;5027024;28;20061;-62
2022/07/03 11:16:48;;;;;;;11.85;8.18;;;;;;;14.26;93.69;99781.31;5027125;28;20096;-62
2022/07/03 11:19:30;;;;;;;10.27;7.28;;;;;;;14.32;94.67;99778.44;5027296;28;20242;-62
2022/07/03 11:22:10;;;;;;;10.60;7.25;;;;;;;14.36;94.46;99780.88;5027213;28;20124;-61
2022/07/03 11:24:45;;;;;;;9.88;7.10;;;;;;;14.38;94.67;99783.47;5026666;28;20057;-61
2022/07/03 11:27:21;;;;;;;15.75;7.72;;;;;;;14.33;94.50;99770.50;5026866;28;20085;-60
2022/07/03 11:30:01;;;;;;;13.30;7.80;;;;;;;14.43;94.69;99771.00;5026785;28;20058;-61
2022/07/03 11:32:59;;;;;;;12.33;7.40;;;;;;;14.47;94.60;99769.94;5027255;28;20322;-61
2022/07/03 11:35:51;;;;;;;10.55;6.47;;;;;;;14.45;94.24;99784.91;5026430;28;20292;-62
2022/07/03 11:38:27;;;;;;;10.80;6.77;;;;;;;14.40;94.21;99784.25;5026447;28;20334;-62
2022/07/03 11:41:00;;;;;;;9.17;7.37;;;;;;;14.37;94.32;99787.00;5026612;28;20296;-64
2022/07/03 11:43:32;;;;;;;10.43;7.32;;;;;;;14.40;94.57;99786.88;5026475;28;20446;-63
2022/07/03 11:46:03;;;;;;;10.35;7.63;;;;;;;13.91;94.54;99697.72;5026526;28;20058;-64
2022/07/03 11:48:34;;;;;;;16.57;7.80;;;;;;;14.45;94.82;99795.41;5027172;28;20072;-64
2022/07/03 11:51:05;;;;;;;11.57;8.00;;;;;;;14.45;94.50;99790.16;5025647;28;20293;-63
2022/07/03 11:53:38;;;;;;;12.30;8.02;;;;;;;14.40;94.15;99786.88;5026984;28;20288;-63
2022/07/03 11:56:10;;;;;;;11.80;7.70;;;;;;;13.86;94.50;99712.78;5026229;28;20061;-65
2022/07/03 11:58:46;;;;;;;13.70;8.27;;;;;;;14.19;94.90;99786.78;5026319;28;20049;-61
2022/07/03 12:01:34;;;;;;;10.35;7.15;;;;;;;14.07;96.02;99791.66;5026210;28;20083;-61
2022/07/03 12:04:07;;;;;;;11.98;7.15;;;;;;;14.01;96.49;99806.75;5026424;28;20053;-60
2022/07/03 12:06:39;;;;;;;9.55;6.80;;;;;;;14.05;96.94;99812.75;5026297;28;20116;-63
2022/07/03 12:09:19;;;;;;;12.25;6.68;;;;;;;13.77;96.74;99777.00;5026188;28;20064;-63
2022/07/03 12:12:01;;;;;;;10.70;7.05;;;;;;;13.95;97.14;99806.13;5026058;28;20092;-62